createdAt,value
2023-11-01T00:02:22.382Z,0.52
2023-11-01T00:04:49.551Z,0.57
2023-11-01T00:07:16.696Z,0.75
2023-11-01T00:09:43.980Z,0.70
2023-11-01T00:12:11.182Z,0.80
2023-11-01T00:14:38.430Z,0.50
2023-11-01T00:17:05.624Z,0.38
2023-11-01T00:19:32.882Z,0.40
2023-11-01T00:21:59.850Z,0.50
2023-11-01T00:24:26.952Z,0.50
2023-11-01T00:26:54.066Z,1.17
2023-11-01T00:29:21.345Z,0.50
2023-11-01T00:31:48.517Z,0.60
2023-11-01T00:34:15.767Z,0.63
2023-11-01T00:36:43.136Z,0.35
2023-11-01T00:39:10.358Z,0.50
2023-11-01T00:41:37.318Z,0.77
2023-11-01T00:44:07.243Z,0.45
2023-11-01T00:46:34.449Z,0.63
2023-11-01T00:49:02.078Z,0.60
2023-11-01T00:51:29.127Z,0.70
2023-11-01T00:53:56.185Z,0.60
2023-11-01T00:56:23.118Z,0.40
2023-11-01T00:58:50.149Z,0.50
2023-11-01T01:01:17.417Z,0.40
2023-11-01T01:03:44.728Z,0.73
2023-11-01T01:06:11.919Z,0.60
2023-11-01T01:08:39.169Z,0.40
2023-11-01T01:11:06.329Z,0.63
2023-11-01T01:13:33.368Z,0.70
2023-11-01T01:16:00.453Z,0.50
2023-11-01T01:18:27.773Z,0.35
2023-11-01T01:20:54.985Z,0.30
2023-11-01T01:23:22.265Z,0.50
2023-11-01T01:25:49.273Z,0.57
2023-11-01T01:28:16.240Z,0.40
2023-11-01T01:30:43.286Z,0.52
2023-11-01T01:33:10.707Z,0.73
2023-11-01T01:35:37.936Z,0.68
2023-11-01T01:38:05.138Z,0.73
2023-11-01T01:40:35.238Z,0.45
2023-11-01T01:43:19.517Z,0.50
2023-11-01T01:45:47.220Z,0.55
2023-11-01T01:48:14.777Z,0.90
2023-11-01T01:50:42.038Z,0.80
2023-11-01T01:53:09.453Z,0.70
2023-11-01T01:55:37.155Z,0.52
2023-11-01T01:58:05.028Z,0.73
2023-11-01T02:00:33.463Z,0.65
2023-11-01T02:03:01.619Z,0.80
2023-11-01T02:05:29.329Z,0.60
2023-11-01T02:07:56.624Z,0.70
2023-11-01T02:10:24.275Z,0.60
2023-11-01T02:12:53.255Z,0.93
2023-11-01T02:15:23.747Z,0.95
2023-11-01T02:17:50.890Z,0.70
2023-11-01T02:20:18.538Z,1.00
2023-11-01T02:22:45.587Z,0.70
2023-11-01T02:25:13.946Z,0.70
2023-11-01T02:27:41.618Z,0.80
2023-11-01T02:30:15.597Z,0.63
2023-11-01T02:32:42.625Z,0.93
2023-11-01T02:35:09.856Z,0.40
2023-11-01T02:37:36.866Z,0.40
2023-11-01T02:40:04.439Z,0.57
2023-11-01T02:42:32.187Z,0.55
2023-11-01T02:44:59.425Z,0.70
2023-11-01T02:47:26.797Z,0.70
2023-11-01T02:49:54.611Z,0.60
2023-11-01T02:52:21.962Z,0.63
2023-11-01T02:54:48.994Z,0.68
2023-11-01T02:57:16.078Z,0.70
2023-11-01T02:59:43.191Z,0.73
2023-11-01T03:02:10.380Z,0.82
2023-11-01T03:04:37.498Z,1.00
2023-11-01T03:07:04.482Z,1.10
2023-11-01T03:09:31.514Z,0.65
2023-11-01T03:11:58.614Z,1.00
2023-11-01T03:14:25.599Z,0.68
2023-11-01T03:16:52.735Z,0.90
2023-11-01T03:19:19.703Z,0.80
2023-11-01T03:21:46.827Z,1.42
2023-11-01T03:24:14.038Z,0.82
2023-11-01T03:26:41.492Z,0.63
2023-11-01T03:29:08.700Z,0.68
2023-11-01T03:31:35.725Z,0.80
2023-11-01T03:34:02.875Z,0.77
2023-11-01T03:36:29.840Z,0.70
2023-11-01T03:38:56.942Z,0.75
2023-11-01T03:41:24.159Z,1.27
2023-11-01T03:43:51.214Z,1.05
2023-11-01T03:46:18.380Z,0.57
2023-11-01T03:48:45.389Z,0.63
2023-11-01T03:51:12.501Z,0.77
2023-11-01T03:53:39.646Z,0.73
2023-11-01T03:56:07.452Z,0.73
2023-11-01T03:58:34.919Z,0.95
2023-11-01T04:01:02.048Z,0.70
2023-11-01T04:03:29.226Z,1.05
2023-11-01T04:05:56.441Z,0.77
2023-11-01T04:08:24.160Z,0.70
2023-11-01T04:10:51.360Z,0.82
2023-11-01T04:13:18.469Z,1.40
2023-11-01T04:15:45.611Z,0.70
2023-11-01T04:18:12.727Z,0.70
2023-11-01T04:20:39.767Z,1.10
2023-11-01T04:23:07.090Z,1.00
2023-11-01T04:25:34.368Z,1.00
2023-11-01T04:28:01.568Z,0.90
2023-11-01T04:30:28.528Z,1.02
2023-11-01T04:32:55.656Z,0.93
2023-11-01T04:35:22.709Z,1.02
2023-11-01T04:37:49.678Z,1.08
2023-11-01T04:40:16.918Z,1.08
2023-11-01T04:42:46.014Z,0.75
2023-11-01T04:45:13.825Z,0.90
2023-11-01T04:47:43.893Z,0.90
2023-11-01T04:50:12.620Z,1.20
2023-11-01T04:52:40.914Z,0.80
2023-11-01T04:55:09.779Z,1.60
2023-11-01T04:57:37.246Z,1.27
2023-11-01T05:00:12.834Z,1.13
2023-11-01T05:02:40.307Z,0.82
2023-11-01T05:05:09.557Z,1.08
2023-11-01T05:07:37.372Z,1.10
2023-11-01T05:10:12.255Z,0.95
2023-11-01T05:12:39.423Z,0.88
2023-11-01T05:15:07.044Z,0.77
2023-11-01T05:17:34.373Z,0.70
2023-11-01T05:20:01.520Z,0.98
2023-11-01T05:22:28.537Z,0.85
2023-11-01T05:24:55.527Z,0.90
2023-11-01T05:27:22.622Z,0.82
2023-11-01T05:29:49.706Z,1.00
2023-11-01T05:32:16.966Z,0.90
2023-11-01T05:34:46.413Z,1.20
2023-11-01T05:37:13.589Z,0.70
2023-11-01T05:39:41.943Z,0.90
2023-11-01T05:42:09.886Z,0.98
2023-11-01T05:44:38.354Z,0.80
2023-11-01T05:47:05.818Z,0.90
2023-11-01T05:49:35.866Z,0.88
2023-11-01T05:52:04.109Z,0.50
2023-11-01T05:54:31.211Z,0.80
2023-11-01T05:56:58.454Z,0.90
2023-11-01T05:59:25.518Z,0.88
2023-11-01T06:01:53.982Z,0.70
2023-11-01T06:04:22.299Z,1.02
2023-11-01T06:06:49.710Z,1.23
2023-11-01T06:09:20.634Z,0.85
2023-11-01T06:11:47.787Z,0.98
2023-11-01T06:14:15.034Z,0.80
2023-11-01T06:16:42.221Z,0.40
2023-11-01T06:19:09.222Z,0.70
2023-11-01T06:21:37.715Z,0.80
2023-11-01T06:24:05.216Z,0.70
2023-11-01T06:26:32.647Z,0.70
2023-11-01T06:28:59.699Z,0.50
2023-11-01T06:31:26.724Z,0.88
2023-11-01T06:33:53.872Z,0.52
2023-11-01T06:36:21.313Z,0.90
2023-11-01T06:38:48.529Z,0.85
2023-11-01T06:41:15.721Z,0.93
2023-11-01T06:43:43.265Z,0.75
2023-11-01T06:46:10.354Z,0.70
2023-11-01T06:48:37.453Z,0.70
2023-11-01T06:51:05.323Z,0.95
2023-11-01T06:53:32.319Z,0.70
2023-11-01T06:55:59.319Z,0.70
2023-11-01T06:58:27.216Z,0.80
2023-11-01T07:00:54.385Z,1.33
2023-11-01T07:03:21.594Z,0.55
2023-11-01T07:05:49.195Z,0.88
2023-11-01T07:08:16.396Z,1.00
2023-11-01T07:10:43.623Z,1.10
2023-11-01T07:13:10.631Z,0.85
2023-11-01T07:15:39.044Z,0.90
2023-11-01T07:18:08.713Z,0.75
2023-11-01T07:20:36.634Z,1.02
2023-11-01T07:23:03.721Z,0.70
2023-11-01T07:25:30.817Z,0.80
2023-11-01T07:27:58.246Z,0.60
2023-11-01T07:30:25.313Z,0.70
2023-11-01T07:32:53.896Z,0.52
2023-11-01T07:35:21.060Z,0.70
2023-11-01T07:37:48.089Z,0.70
2023-11-01T07:40:15.155Z,0.70
2023-11-01T07:42:42.174Z,0.50
2023-11-01T07:45:13.096Z,0.60
2023-11-01T07:47:42.301Z,0.70
2023-11-01T07:50:13.327Z,0.40
2023-11-01T07:52:41.417Z,0.80
2023-11-01T07:55:08.732Z,0.52
2023-11-01T07:57:35.923Z,0.82
2023-11-01T08:00:06.730Z,1.73
2023-11-01T08:02:34.061Z,1.65
2023-11-01T08:05:01.338Z,0.90
2023-11-01T08:07:28.656Z,1.10
2023-11-01T08:09:55.832Z,0.65
2023-11-01T08:12:22.867Z,1.10
2023-11-01T08:14:51.295Z,0.70
2023-11-01T08:17:18.816Z,0.95
2023-11-01T08:19:45.981Z,0.80
2023-11-01T08:22:13.765Z,0.98
2023-11-01T08:24:41.481Z,0.70
2023-11-01T08:27:08.688Z,1.10
2023-11-01T08:29:36.857Z,1.30
2023-11-01T08:32:06.635Z,0.85
2023-11-01T08:34:33.737Z,0.80
2023-11-01T08:37:00.701Z,0.90
2023-11-01T08:39:27.697Z,0.90
2023-11-01T08:41:54.952Z,0.90
2023-11-01T08:44:22.104Z,1.10
2023-11-01T08:46:49.059Z,0.90
2023-11-01T08:49:16.169Z,0.77
2023-11-01T08:51:43.205Z,1.08
2023-11-01T08:54:13.250Z,0.77
2023-11-01T08:56:40.441Z,0.73
2023-11-01T08:59:07.881Z,1.00
2023-11-01T09:01:34.961Z,1.10
2023-11-01T09:04:02.140Z,0.70
2023-11-01T09:06:32.312Z,1.25
2023-11-01T09:09:00.337Z,1.25
2023-11-01T09:11:27.959Z,1.13
2023-11-01T09:13:55.501Z,0.90
2023-11-01T09:16:22.703Z,1.40
2023-11-01T09:18:49.925Z,0.75
2023-11-01T09:21:17.082Z,1.10
2023-11-01T09:23:44.417Z,1.48
2023-11-01T09:26:15.405Z,1.25
2023-11-01T09:28:43.360Z,1.00
2023-11-01T09:31:10.860Z,1.20
2023-11-01T09:33:38.002Z,1.00
2023-11-01T09:36:06.392Z,1.38
2023-11-01T09:38:33.502Z,0.88
2023-11-01T09:41:04.413Z,1.05
2023-11-01T09:43:34.666Z,1.05
2023-11-01T09:46:04.943Z,0.93
2023-11-01T09:48:32.922Z,1.20
2023-11-01T09:51:02.736Z,1.10
2023-11-01T09:53:30.055Z,1.33
2023-11-01T09:55:57.421Z,1.55
2023-11-01T09:58:26.494Z,1.27
2023-11-01T10:00:54.097Z,0.93
2023-11-01T10:03:23.730Z,1.13
2023-11-01T10:05:50.988Z,1.15
2023-11-01T10:08:18.479Z,0.90
2023-11-01T10:10:47.147Z,1.00
2023-11-01T10:13:14.364Z,1.17
2023-11-01T10:15:41.593Z,0.95
2023-11-01T10:18:08.989Z,1.08
2023-11-01T10:20:36.095Z,1.20
2023-11-01T10:23:03.037Z,1.30
2023-11-01T10:25:30.266Z,1.30
2023-11-01T10:27:57.517Z,1.10
2023-11-01T10:30:24.534Z,2.47
2023-11-01T10:32:57.814Z,1.50
2023-11-01T10:35:25.736Z,1.15
2023-11-01T10:38:02.487Z,1.35
2023-11-01T10:40:30.796Z,1.20
2023-11-01T10:43:00.723Z,1.35
2023-11-01T10:45:28.026Z,1.10
2023-11-01T10:47:55.972Z,1.23
2023-11-01T10:50:23.728Z,1.10
2023-11-01T10:52:51.918Z,1.15
2023-11-01T10:55:21.406Z,1.30
2023-11-01T10:57:51.123Z,1.00
2023-11-01T11:00:31.177Z,1.00
2023-11-01T11:03:12.607Z,1.40
2023-11-01T11:05:43.916Z,1.40
2023-11-01T11:08:12.107Z,1.00
2023-11-01T11:10:43.545Z,1.25
2023-11-01T11:13:11.265Z,1.20
2023-11-01T11:16:01.274Z,1.33
2023-11-01T11:18:50.382Z,1.10
2023-11-01T11:21:55.348Z,0.90
2023-11-01T11:24:40.129Z,1.15
2023-11-01T11:27:46.587Z,1.38
2023-11-01T11:30:13.747Z,1.10
2023-11-01T11:32:40.995Z,1.20
2023-11-01T11:35:23.664Z,1.30
2023-11-01T11:37:51.241Z,1.05
2023-11-01T11:40:18.445Z,1.08
2023-11-01T11:42:49.950Z,1.40
2023-11-01T11:45:30.530Z,1.13
2023-11-01T11:47:59.215Z,1.40
2023-11-01T11:50:30.150Z,0.95
2023-11-01T11:52:57.728Z,1.10
2023-11-01T11:55:43.767Z,1.20
2023-11-01T11:58:11.291Z,1.13
2023-11-01T12:00:46.736Z,0.95
2023-11-01T12:03:25.412Z,0.85
2023-11-01T12:06:02.648Z,1.08
2023-11-01T12:08:40.064Z,1.20
2023-11-01T12:11:10.225Z,0.80
2023-11-01T12:13:55.409Z,0.90
2023-11-01T12:16:31.351Z,0.88
2023-11-01T12:19:12.403Z,1.13
2023-11-01T12:21:44.609Z,0.70
2023-11-01T12:24:15.920Z,1.23
2023-11-01T12:27:11.090Z,1.02
2023-11-01T12:29:52.523Z,1.15
2023-11-01T12:32:25.803Z,1.05
2023-11-01T12:34:52.864Z,1.40
2023-11-01T12:37:22.255Z,1.10
2023-11-01T12:40:17.094Z,0.85
2023-11-01T12:42:51.332Z,0.90
2023-11-01T12:45:21.242Z,0.75
2023-11-01T12:47:54.486Z,0.90
2023-11-01T12:50:29.969Z,0.50
2023-11-01T12:52:57.443Z,0.85
2023-11-01T12:55:25.163Z,0.90
2023-11-01T12:57:56.695Z,0.93
2023-11-01T13:00:24.990Z,1.70
2023-11-01T13:02:53.406Z,1.15
2023-11-01T13:05:21.944Z,1.17
2023-11-01T13:07:49.357Z,1.17
2023-11-01T13:10:17.429Z,1.10
2023-11-01T13:12:47.160Z,0.70
2023-11-01T13:15:15.748Z,0.90
2023-11-01T13:17:42.892Z,0.90
2023-11-01T13:20:10.458Z,0.90
2023-11-01T13:22:37.807Z,0.80
2023-11-01T13:25:05.703Z,0.73
2023-11-01T13:27:32.802Z,1.38
2023-11-01T13:29:59.871Z,0.70
2023-11-01T13:32:27.240Z,0.82
2023-11-01T13:34:56.649Z,0.88
2023-11-01T13:37:23.890Z,0.88
2023-11-01T13:39:51.205Z,1.38
2023-11-01T13:42:18.363Z,0.80
2023-11-01T13:44:45.739Z,0.93
2023-11-01T13:47:13.403Z,0.77
2023-11-01T13:49:42.682Z,0.90
2023-11-01T13:52:12.919Z,0.82
2023-11-01T13:54:40.611Z,1.10
2023-11-01T13:57:08.741Z,1.20
2023-11-01T13:59:36.743Z,1.30
2023-11-01T14:02:04.280Z,0.93
2023-11-01T14:04:32.890Z,1.17
2023-11-01T14:07:00.437Z,1.13
2023-11-01T14:09:27.598Z,0.95
2023-11-01T14:11:55.564Z,0.90
2023-11-01T14:14:24.263Z,0.70
2023-11-01T14:16:52.085Z,0.75
2023-11-01T14:19:19.456Z,1.10
2023-11-01T14:21:46.492Z,0.80
2023-11-01T14:24:16.339Z,0.70
2023-11-01T14:26:46.165Z,1.58
2023-11-01T14:29:13.379Z,0.98
2023-11-01T14:31:40.849Z,1.10
2023-11-01T14:34:08.429Z,1.15
2023-11-01T14:36:35.664Z,0.85
2023-11-01T14:39:04.018Z,0.85
2023-11-01T14:41:31.987Z,1.17
2023-11-01T14:44:00.977Z,0.93
2023-11-01T14:46:28.854Z,1.05
2023-11-01T14:48:56.698Z,1.08
2023-11-01T14:51:23.973Z,0.70
2023-11-01T14:53:51.213Z,0.90
2023-11-01T14:56:18.615Z,0.95
2023-11-01T14:58:48.362Z,1.13
2023-11-01T15:01:16.615Z,0.85
2023-11-01T15:03:45.643Z,0.60
2023-11-01T15:06:13.363Z,0.73
2023-11-01T15:08:41.155Z,1.17
2023-11-01T15:11:10.607Z,0.80
2023-11-01T15:13:37.739Z,0.80
2023-11-01T15:16:07.047Z,0.80
2023-11-01T15:18:34.212Z,1.30
2023-11-01T15:21:26.994Z,0.90
2023-11-01T15:23:54.161Z,1.13
2023-11-01T15:26:21.347Z,1.27
2023-11-01T15:28:48.591Z,0.93
2023-11-01T15:31:15.641Z,0.85
2023-11-01T15:33:43.068Z,0.88
2023-11-01T15:36:10.693Z,1.20
2023-11-01T15:38:37.989Z,1.35
2023-11-01T15:41:06.019Z,1.10
2023-11-01T15:43:33.195Z,1.17
2023-11-01T15:46:00.330Z,1.70
2023-11-01T15:48:28.756Z,1.20
2023-11-01T15:50:55.870Z,1.48
2023-11-01T15:53:26.602Z,1.92
2023-11-01T15:55:54.244Z,1.95
2023-11-01T15:58:22.508Z,2.47
2023-11-01T16:00:50.510Z,2.30
2023-11-01T16:03:17.945Z,2.42
2023-11-01T16:05:47.238Z,1.90
2023-11-01T16:08:14.296Z,1.75
2023-11-01T16:10:41.532Z,1.30
2023-11-01T16:13:08.585Z,1.80
2023-11-01T16:15:35.672Z,1.35
2023-11-01T16:18:03.100Z,1.45
2023-11-01T16:20:30.226Z,1.23
2023-11-01T16:22:57.544Z,1.83
2023-11-01T16:25:25.553Z,1.35
2023-11-01T16:27:52.739Z,1.52
2023-11-01T16:30:20.026Z,1.58
2023-11-01T16:32:51.069Z,1.60
2023-11-01T16:35:21.541Z,1.40
2023-11-01T16:37:49.040Z,1.42
2023-11-01T16:40:20.181Z,1.38
2023-11-01T16:42:48.534Z,1.45
2023-11-01T16:45:15.919Z,1.73
2023-11-01T16:47:45.898Z,1.55
2023-11-01T16:50:13.292Z,1.73
2023-11-01T16:52:40.535Z,1.10
2023-11-01T16:55:08.316Z,1.30
2023-11-01T16:57:35.791Z,1.20
2023-11-01T17:00:03.516Z,1.70
2023-11-01T17:02:42.170Z,1.48
2023-11-01T17:05:13.370Z,1.35
2023-11-01T17:07:40.862Z,1.20
2023-11-01T17:10:09.822Z,1.50
2023-11-01T17:12:36.792Z,1.77
2023-11-01T17:15:05.530Z,1.77
2023-11-01T17:17:32.667Z,1.55
2023-11-01T17:19:59.813Z,1.70
2023-11-01T17:22:44.799Z,1.83
2023-11-01T17:25:46.330Z,1.58
2023-11-01T17:28:32.354Z,2.15
2023-11-01T17:31:09.066Z,2.00
2023-11-01T17:33:42.887Z,2.05
2023-11-01T17:36:28.547Z,2.05
2023-11-01T17:38:57.676Z,1.85
2023-11-01T17:41:55.512Z,2.35
2023-11-01T17:44:25.741Z,2.88
2023-11-01T17:47:01.811Z,2.10
2023-11-01T17:49:52.074Z,2.50
2023-11-01T17:52:38.160Z,2.53
2023-11-01T17:55:07.964Z,2.35
2023-11-01T17:57:40.742Z,2.13
2023-11-01T18:00:11.722Z,2.50
2023-11-01T18:03:14.510Z,3.42
2023-11-01T18:05:44.779Z,2.78
2023-11-01T18:08:17.670Z,2.83
2023-11-01T18:10:51.524Z,2.85
2023-11-01T18:13:31.290Z,2.55
2023-11-01T18:16:08.854Z,2.67
2023-11-01T18:18:56.509Z,3.03
2023-11-01T18:21:34.283Z,2.55
2023-11-01T18:24:14.988Z,3.17
2023-11-01T18:26:43.070Z,2.80
2023-11-01T18:29:11.117Z,2.85
2023-11-01T18:31:46.587Z,2.92
2023-11-01T18:34:16.652Z,2.63
2023-11-01T18:36:46.835Z,2.97
2023-11-01T18:39:24.875Z,2.55
2023-11-01T18:41:52.625Z,2.60
2023-11-01T18:44:35.486Z,2.28
2023-11-01T18:47:05.765Z,2.42
2023-11-01T18:49:47.935Z,2.30
2023-11-01T18:52:17.976Z,2.30
2023-11-01T18:54:50.743Z,2.25
2023-11-01T18:57:31.970Z,2.50
2023-11-01T18:59:59.795Z,2.35
2023-11-01T19:02:36.150Z,2.30
2023-11-01T19:05:09.435Z,2.72
2023-11-01T19:07:45.117Z,2.38
2023-11-01T19:10:12.998Z,3.07
2023-11-01T19:12:40.279Z,2.50
2023-11-01T19:15:29.857Z,2.95
2023-11-01T19:17:57.030Z,2.72
2023-11-01T19:20:24.160Z,2.20
2023-11-01T19:22:51.542Z,2.38
2023-11-01T19:25:18.874Z,2.80
2023-11-01T19:27:46.151Z,3.10
2023-11-01T19:30:14.014Z,3.22
2023-11-01T19:32:43.562Z,3.28
2023-11-01T19:35:11.157Z,3.40
2023-11-01T19:37:39.649Z,3.13
2023-11-01T19:40:09.194Z,2.88
2023-11-01T19:42:37.225Z,2.63
2023-11-01T19:45:05.525Z,3.10
2023-11-01T19:47:33.251Z,2.22
2023-11-01T19:50:00.238Z,2.83
2023-11-01T19:52:27.168Z,2.95
2023-11-01T19:54:54.401Z,2.72
2023-11-01T19:57:21.389Z,2.45
2023-11-01T19:59:49.166Z,2.80
2023-11-01T20:02:16.614Z,2.78
2023-11-01T20:04:44.357Z,3.00
2023-11-01T20:07:11.664Z,2.72
2023-11-01T20:09:38.772Z,2.45
2023-11-01T20:12:07.463Z,2.60
2023-11-01T20:14:35.026Z,2.30
2023-11-01T20:17:05.887Z,2.20
2023-11-01T20:19:32.929Z,2.08
2023-11-01T20:22:00.343Z,2.60
2023-11-01T20:24:27.625Z,2.40
2023-11-01T20:26:54.724Z,2.30
2023-11-01T20:29:24.978Z,2.67
2023-11-01T20:31:52.775Z,2.13
2023-11-01T20:34:19.900Z,2.97
2023-11-01T20:36:47.063Z,2.63
2023-11-01T20:39:14.409Z,2.35
2023-11-01T20:41:41.806Z,2.58
2023-11-01T20:44:08.969Z,2.83
2023-11-01T20:46:36.013Z,2.63
2023-11-01T20:49:03.347Z,2.70
2023-11-01T20:51:30.299Z,2.53
2023-11-01T20:53:59.386Z,2.38
2023-11-01T20:56:26.443Z,2.97
2023-11-01T20:58:54.087Z,2.95
2023-11-01T21:01:21.224Z,2.53
2023-11-01T21:03:48.977Z,2.92
2023-11-01T21:06:18.414Z,2.88
2023-11-01T21:08:51.007Z,2.63
2023-11-01T21:11:18.102Z,3.15
2023-11-01T21:13:45.279Z,2.72
2023-11-01T21:16:12.414Z,2.35
2023-11-01T21:18:39.621Z,3.45
2023-11-01T21:21:09.915Z,2.67
2023-11-01T21:23:38.508Z,2.53
2023-11-01T21:26:05.771Z,2.80
2023-11-01T21:28:32.861Z,2.85
2023-11-01T21:31:04.358Z,2.53
2023-11-01T21:33:31.706Z,2.67
2023-11-01T21:35:58.867Z,2.60
2023-11-01T21:38:26.154Z,2.83
2023-11-01T21:40:53.342Z,3.13
2023-11-01T21:43:25.562Z,3.15
2023-11-01T21:45:53.916Z,2.97
2023-11-01T21:48:25.863Z,2.60
2023-11-01T21:51:00.941Z,2.70
2023-11-01T21:53:35.185Z,2.40
2023-11-01T21:56:02.333Z,2.65
2023-11-01T21:58:32.199Z,2.85
2023-11-01T22:01:07.313Z,2.92
2023-11-01T22:03:43.144Z,2.70
2023-11-01T22:06:27.799Z,2.30
2023-11-01T22:09:07.118Z,2.63
2023-11-01T22:11:38.104Z,3.10
2023-11-01T22:14:11.503Z,2.80
2023-11-01T22:16:41.071Z,3.00
2023-11-01T22:19:35.269Z,2.92
2023-11-01T22:22:22.363Z,2.97
2023-11-01T22:24:49.415Z,3.03
2023-11-01T22:27:17.802Z,2.90
2023-11-01T22:29:53.026Z,2.53
2023-11-01T22:32:21.052Z,2.55
2023-11-01T22:34:49.298Z,2.95
2023-11-01T22:37:24.064Z,2.53
2023-11-01T22:39:52.458Z,2.72
2023-11-01T22:42:24.314Z,2.63
2023-11-01T22:44:51.736Z,2.70
2023-11-01T22:47:19.158Z,2.85
2023-11-01T22:49:46.334Z,2.60
2023-11-01T22:52:13.412Z,2.97
2023-11-01T22:54:42.141Z,2.88
2023-11-01T22:57:09.502Z,2.83
2023-11-01T22:59:38.672Z,2.38
2023-11-01T23:02:08.327Z,2.60
2023-11-01T23:04:36.394Z,2.55
2023-11-01T23:07:03.921Z,2.83
2023-11-01T23:09:31.195Z,2.60
2023-11-01T23:11:58.261Z,2.80
2023-11-01T23:14:25.423Z,2.70
2023-11-01T23:16:52.533Z,2.53
2023-11-01T23:19:20.371Z,2.60
2023-11-01T23:21:47.480Z,2.60
2023-11-01T23:24:15.793Z,2.90
2023-11-01T23:26:56.986Z,2.70
2023-11-01T23:29:38.550Z,3.08
2023-11-01T23:32:15.343Z,2.85
2023-11-01T23:34:53.065Z,2.50
2023-11-01T23:37:38.048Z,2.53
2023-11-01T23:40:11.728Z,3.10
2023-11-01T23:42:39.052Z,2.55
2023-11-01T23:45:53.367Z,2.80
2023-11-01T23:48:20.965Z,2.97
2023-11-01T23:50:48.189Z,2.97
2023-11-01T23:53:26.125Z,3.10
2023-11-01T23:55:54.215Z,2.65
2023-11-01T23:58:35.632Z,2.85
